Austinville, Pennsylvania
Current Conditions -  °F | °C
As of 10:53 AM on Friday 31 Oct 2014 (Local Time) from KELM Reporting Station
Overcast Overcast  
Wind Chill: 39°   Ceiling: 6000
Heat Index: 42°   Visibility: 10mi
Dew Point: 36°   Wind: 5mph
Humidity: 79%   Direction: 40°NE
Pressure: 29.98"   Gusts: NA
Location:  41.8495°N, 76.7925°W
Report Text: KELM 311453Z 04004KT 10SM OVC060 06/02 A2998 RMK AO2 SLP160 T00560022 58004
Loading
Personal Weather Stations






























Interactive Weather Map
Tropical Storm Tracking
New forecast layout! Learn more

10-Day Weather Forecast

Advertisements
Track Severe Weather on mobile